sensor_id;sensor_type;location;lat;lon;timestamp;P1;durP1;ratioP1;P2;durP2;ratioP2
21769;SDS011;11046;49.558;8.674;2022-09-03T00:02:21;1.73;;;1.30;;
21769;SDS011;11046;49.558;8.674;2022-09-03T00:12:41;1.90;;;1.45;;
21769;SDS011;11046;49.558;8.674;2022-09-03T00:15:27;3.22;;;1.20;;
21769;SDS011;11046;49.558;8.674;2022-09-03T00:18:31;2.17;;;1.20;;
21769;SDS011;11046;49.558;8.674;2022-09-03T00:21:38;2.75;;;1.05;;
21769;SDS011;11046;49.558;8.674;2022-09-03T00:24:43;1.63;;;1.23;;
21769;SDS011;11046;49.558;8.674;2022-09-03T00:27:47;2.60;;;1.30;;
21769;SDS011;11046;49.558;8.674;2022-09-03T00:30:58;3.97;;;1.40;;
21769;SDS011;11046;49.558;8.674;2022-09-03T00:34:33;1.70;;;1.27;;
21769;SDS011;11046;49.558;8.674;2022-09-03T00:37:38;2.15;;;1.20;;
21769;SDS011;11046;49.558;8.674;2022-09-03T00:40:51;2.28;;;1.30;;
21769;SDS011;11046;49.558;8.674;2022-09-03T00:54:06;2.10;;;1.10;;
21769;SDS011;11046;49.558;8.674;2022-09-03T01:01:04;2.00;;;1.23;;
21769;SDS011;11046;49.558;8.674;2022-09-03T01:04:26;4.32;;;1.63;;
21769;SDS011;11046;49.558;8.674;2022-09-03T01:07:39;3.70;;;1.27;;
21769;SDS011;11046;49.558;8.674;2022-09-03T01:10:51;1.92;;;1.40;;
21769;SDS011;11046;49.558;8.674;2022-09-03T01:14:25;2.90;;;1.23;;
21769;SDS011;11046;49.558;8.674;2022-09-03T01:27:29;5.40;;;1.42;;
21769;SDS011;11046;49.558;8.674;2022-09-03T01:30:32;2.10;;;1.20;;
21769;SDS011;11046;49.558;8.674;2022-09-03T01:33:43;2.13;;;1.15;;
21769;SDS011;11046;49.558;8.674;2022-09-03T01:36:54;1.65;;;1.42;;
21769;SDS011;11046;49.558;8.674;2022-09-03T01:40:17;2.63;;;1.30;;
21769;SDS011;11046;49.558;8.674;2022-09-03T01:43:43;4.00;;;1.60;;
21769;SDS011;11046;49.558;8.674;2022-09-03T01:46:56;4.50;;;1.70;;
21769;SDS011;11046;49.558;8.674;2022-09-03T01:50:28;2.35;;;1.27;;
21769;SDS011;11046;49.558;8.674;2022-09-03T01:57:42;2.17;;;1.30;;
21769;SDS011;11046;49.558;8.674;2022-09-03T02:01:02;2.90;;;1.60;;
21769;SDS011;11046;49.558;8.674;2022-09-03T02:04:19;3.03;;;1.30;;
21769;SDS011;11046;49.558;8.674;2022-09-03T02:07:22;1.65;;;1.30;;
21769;SDS011;11046;49.558;8.674;2022-09-03T02:10:47;3.28;;;1.50;;
21769;SDS011;11046;49.558;8.674;2022-09-03T02:13:52;3.35;;;1.25;;
21769;SDS011;11046;49.558;8.674;2022-09-03T02:16:56;3.80;;;1.73;;
21769;SDS011;11046;49.558;8.674;2022-09-03T02:20:00;3.65;;;1.27;;
21769;SDS011;11046;49.558;8.674;2022-09-03T02:23:07;4.05;;;1.25;;
21769;SDS011;11046;49.558;8.674;2022-09-03T02:26:08;4.40;;;1.67;;
21769;SDS011;11046;49.558;8.674;2022-09-03T02:29:11;3.05;;;1.30;;
21769;SDS011;11046;49.558;8.674;2022-09-03T02:32:13;2.38;;;1.50;;
21769;SDS011;11046;49.558;8.674;2022-09-03T02:35:14;1.92;;;1.40;;
21769;SDS011;11046;49.558;8.674;2022-09-03T02:38:19;2.40;;;1.33;;
21769;SDS011;11046;49.558;8.674;2022-09-03T02:41:27;1.40;;;1.27;;
21769;SDS011;11046;49.558;8.674;2022-09-03T02:44:29;2.75;;;1.20;;
21769;SDS011;11046;49.558;8.674;2022-09-03T02:47:32;4.82;;;1.52;;
21769;SDS011;11046;49.558;8.674;2022-09-03T02:50:39;1.23;;;1.13;;
21769;SDS011;11046;49.558;8.674;2022-09-03T02:53:41;2.25;;;1.33;;
21769;SDS011;11046;49.558;8.674;2022-09-03T02:56:42;2.45;;;1.20;;
21769;SDS011;11046;49.558;8.674;2022-09-03T02:59:42;1.55;;;1.35;;
21769;SDS011;11046;49.558;8.674;2022-09-03T03:02:44;4.32;;;1.40;;
21769;SDS011;11046;49.558;8.674;2022-09-03T03:05:47;4.53;;;1.15;;
21769;SDS011;11046;49.558;8.674;2022-09-03T03:08:56;3.67;;;1.70;;
21769;SDS011;11046;49.558;8.674;2022-09-03T03:11:56;2.08;;;1.50;;
21769;SDS011;11046;49.558;8.674;2022-09-03T03:14:57;2.40;;;1.30;;
21769;SDS011;11046;49.558;8.674;2022-09-03T03:17:58;4.15;;;1.40;;
21769;SDS011;11046;49.558;8.674;2022-09-03T03:21:02;1.92;;;1.40;;
21769;SDS011;11046;49.558;8.674;2022-09-03T03:24:11;3.03;;;1.50;;
21769;SDS011;11046;49.558;8.674;2022-09-03T03:27:11;1.83;;;1.30;;
21769;SDS011;11046;49.558;8.674;2022-09-03T03:30:13;1.67;;;1.50;;
21769;SDS011;11046;49.558;8.674;2022-09-03T03:33:14;1.70;;;1.33;;
21769;SDS011;11046;49.558;8.674;2022-09-03T03:36:15;3.30;;;1.42;;
21769;SDS011;11046;49.558;8.674;2022-09-03T03:39:16;4.70;;;1.30;;
21769;SDS011;11046;49.558;8.674;2022-09-03T03:42:16;2.50;;;1.30;;
21769;SDS011;11046;49.558;8.674;2022-09-03T03:45:17;1.40;;;1.30;;
21769;SDS011;11046;49.558;8.674;2022-09-03T03:48:18;2.55;;;1.52;;
21769;SDS011;11046;49.558;8.674;2022-09-03T03:51:18;2.67;;;1.20;;
21769;SDS011;11046;49.558;8.674;2022-09-03T03:54:19;2.80;;;1.40;;
21769;SDS011;11046;49.558;8.674;2022-09-03T03:57:20;2.70;;;1.40;;
21769;SDS011;11046;49.558;8.674;2022-09-03T04:00:22;4.03;;;1.60;;
21769;SDS011;11046;49.558;8.674;2022-09-03T04:03:22;4.45;;;1.30;;
21769;SDS011;11046;49.558;8.674;2022-09-03T04:06:23;4.65;;;1.60;;
21769;SDS011;11046;49.558;8.674;2022-09-03T04:09:24;4.75;;;1.60;;
21769;SDS011;11046;49.558;8.674;2022-09-03T04:12:25;1.92;;;1.45;;
21769;SDS011;11046;49.558;8.674;2022-09-03T04:15:26;1.98;;;1.48;;
21769;SDS011;11046;49.558;8.674;2022-09-03T04:18:27;3.28;;;1.50;;
21769;SDS011;11046;49.558;8.674;2022-09-03T04:21:29;1.50;;;1.40;;
21769;SDS011;11046;49.558;8.674;2022-09-03T04:24:30;2.10;;;1.40;;
21769;SDS011;11046;49.558;8.674;2022-09-03T04:27:31;3.55;;;1.40;;
21769;SDS011;11046;49.558;8.674;2022-09-03T04:30:32;1.50;;;1.38;;
21769;SDS011;11046;49.558;8.674;2022-09-03T04:33:33;2.53;;;1.33;;
21769;SDS011;11046;49.558;8.674;2022-09-03T04:36:37;1.83;;;1.60;;
21769;SDS011;11046;49.558;8.674;2022-09-03T04:39:37;1.73;;;1.48;;
21769;SDS011;11046;49.558;8.674;2022-09-03T04:42:38;1.63;;;1.40;;
21769;SDS011;11046;49.558;8.674;2022-09-03T04:45:39;4.43;;;1.55;;
21769;SDS011;11046;49.558;8.674;2022-09-03T04:48:39;2.35;;;1.52;;
21769;SDS011;11046;49.558;8.674;2022-09-03T04:51:40;6.63;;;1.60;;
21769;SDS011;11046;49.558;8.674;2022-09-03T04:54:42;3.35;;;1.75;;
21769;SDS011;11046;49.558;8.674;2022-09-03T04:57:43;3.10;;;1.50;;
21769;SDS011;11046;49.558;8.674;2022-09-03T05:00:43;1.90;;;1.45;;
21769;SDS011;11046;49.558;8.674;2022-09-03T05:03:44;2.15;;;1.50;;
21769;SDS011;11046;49.558;8.674;2022-09-03T05:06:45;4.20;;;1.50;;
21769;SDS011;11046;49.558;8.674;2022-09-03T05:09:46;2.72;;;1.60;;
21769;SDS011;11046;49.558;8.674;2022-09-03T05:12:46;2.00;;;1.60;;
21769;SDS011;11046;49.558;8.674;2022-09-03T05:16:03;2.53;;;1.75;;
21769;SDS011;11046;49.558;8.674;2022-09-03T05:19:05;1.98;;;1.60;;
21769;SDS011;11046;49.558;8.674;2022-09-03T05:22:07;2.90;;;1.30;;
21769;SDS011;11046;49.558;8.674;2022-09-03T05:25:08;1.67;;;1.50;;
21769;SDS011;11046;49.558;8.674;2022-09-03T05:28:09;5.63;;;1.90;;
21769;SDS011;11046;49.558;8.674;2022-09-03T05:31:11;3.17;;;1.85;;
21769;SDS011;11046;49.558;8.674;2022-09-03T05:34:12;4.22;;;2.03;;
21769;SDS011;11046;49.558;8.674;2022-09-03T05:37:13;2.95;;;1.90;;
21769;SDS011;11046;49.558;8.674;2022-09-03T05:40:14;2.20;;;1.98;;
21769;SDS011;11046;49.558;8.674;2022-09-03T05:43:14;2.38;;;1.80;;
21769;SDS011;11046;49.558;8.674;2022-09-03T05:46:16;4.90;;;1.80;;
21769;SDS011;11046;49.558;8.674;2022-09-03T05:49:17;2.15;;;1.80;;
21769;SDS011;11046;49.558;8.674;2022-09-03T05:52:17;3.75;;;1.90;;
21769;SDS011;11046;49.558;8.674;2022-09-03T05:55:20;2.53;;;1.90;;
21769;SDS011;11046;49.558;8.674;2022-09-03T05:58:21;2.65;;;1.92;;
21769;SDS011;11046;49.558;8.674;2022-09-03T06:01:22;2.22;;;1.80;;
21769;SDS011;11046;49.558;8.674;2022-09-03T06:04:25;2.30;;;1.90;;
21769;SDS011;11046;49.558;8.674;2022-09-03T06:07:25;2.00;;;1.80;;
21769;SDS011;11046;49.558;8.674;2022-09-03T06:10:26;3.90;;;1.80;;
21769;SDS011;11046;49.558;8.674;2022-09-03T06:13:26;3.13;;;2.05;;
21769;SDS011;11046;49.558;8.674;2022-09-03T06:16:28;5.00;;;2.10;;
21769;SDS011;11046;49.558;8.674;2022-09-03T06:19:30;1.95;;;1.75;;
21769;SDS011;11046;49.558;8.674;2022-09-03T06:22:30;3.03;;;1.80;;
21769;SDS011;11046;49.558;8.674;2022-09-03T06:25:31;5.22;;;2.20;;
21769;SDS011;11046;49.558;8.674;2022-09-03T06:28:33;3.42;;;1.70;;
21769;SDS011;11046;49.558;8.674;2022-09-03T06:31:35;4.78;;;1.73;;
21769;SDS011;11046;49.558;8.674;2022-09-03T06:34:35;3.78;;;1.80;;
21769;SDS011;11046;49.558;8.674;2022-09-03T06:37:39;3.20;;;1.90;;
21769;SDS011;11046;49.558;8.674;2022-09-03T06:40:40;4.85;;;1.92;;
21769;SDS011;11046;49.558;8.674;2022-09-03T06:43:41;2.70;;;1.77;;
21769;SDS011;11046;49.558;8.674;2022-09-03T06:46:42;3.40;;;1.92;;
21769;SDS011;11046;49.558;8.674;2022-09-03T06:49:43;4.53;;;1.80;;
21769;SDS011;11046;49.558;8.674;2022-09-03T06:52:43;2.47;;;1.80;;
21769;SDS011;11046;49.558;8.674;2022-09-03T06:55:53;6.55;;;1.75;;
21769;SDS011;11046;49.558;8.674;2022-09-03T06:58:58;3.22;;;2.10;;
21769;SDS011;11046;49.558;8.674;2022-09-03T07:02:03;2.97;;;1.90;;
21769;SDS011;11046;49.558;8.674;2022-09-03T07:05:03;3.65;;;2.47;;
21769;SDS011;11046;49.558;8.674;2022-09-03T07:08:04;5.00;;;2.63;;
21769;SDS011;11046;49.558;8.674;2022-09-03T07:11:06;3.38;;;2.28;;
21769;SDS011;11046;49.558;8.674;2022-09-03T07:14:09;3.50;;;2.30;;
21769;SDS011;11046;49.558;8.674;2022-09-03T07:17:10;2.33;;;1.85;;
21769;SDS011;11046;49.558;8.674;2022-09-03T07:20:11;3.05;;;2.25;;
21769;SDS011;11046;49.558;8.674;2022-09-03T07:23:12;3.78;;;2.20;;
21769;SDS011;11046;49.558;8.674;2022-09-03T07:26:16;4.70;;;2.17;;
21769;SDS011;11046;49.558;8.674;2022-09-03T07:29:18;2.80;;;2.50;;
21769;SDS011;11046;49.558;8.674;2022-09-03T07:32:20;5.00;;;2.40;;
21769;SDS011;11046;49.558;8.674;2022-09-03T07:35:20;3.53;;;2.47;;
21769;SDS011;11046;49.558;8.674;2022-09-03T07:38:24;5.07;;;2.60;;
21769;SDS011;11046;49.558;8.674;2022-09-03T07:41:25;4.35;;;2.83;;
21769;SDS011;11046;49.558;8.674;2022-09-03T07:44:26;3.85;;;2.78;;
21769;SDS011;11046;49.558;8.674;2022-09-03T07:47:27;3.15;;;2.63;;
21769;SDS011;11046;49.558;8.674;2022-09-03T07:50:29;3.30;;;2.40;;
21769;SDS011;11046;49.558;8.674;2022-09-03T07:53:36;4.28;;;2.58;;
21769;SDS011;11046;49.558;8.674;2022-09-03T07:56:40;5.57;;;2.80;;
21769;SDS011;11046;49.558;8.674;2022-09-03T07:59:40;7.00;;;2.55;;
21769;SDS011;11046;49.558;8.674;2022-09-03T08:02:41;6.13;;;2.92;;
21769;SDS011;11046;49.558;8.674;2022-09-03T08:05:42;4.18;;;3.05;;
21769;SDS011;11046;49.558;8.674;2022-09-03T08:08:43;5.18;;;3.08;;
21769;SDS011;11046;49.558;8.674;2022-09-03T08:11:47;4.40;;;3.00;;
21769;SDS011;11046;49.558;8.674;2022-09-03T08:14:47;5.63;;;2.80;;
21769;SDS011;11046;49.558;8.674;2022-09-03T08:17:48;6.30;;;3.25;;
21769;SDS011;11046;49.558;8.674;2022-09-03T08:20:48;5.03;;;3.08;;
21769;SDS011;11046;49.558;8.674;2022-09-03T08:23:50;3.80;;;3.22;;
21769;SDS011;11046;49.558;8.674;2022-09-03T08:26:53;5.07;;;3.10;;
21769;SDS011;11046;49.558;8.674;2022-09-03T08:29:54;4.90;;;3.55;;
21769;SDS011;11046;49.558;8.674;2022-09-03T08:32:55;6.60;;;3.30;;
21769;SDS011;11046;49.558;8.674;2022-09-03T08:35:55;4.07;;;3.67;;
21769;SDS011;11046;49.558;8.674;2022-09-03T08:39:00;7.70;;;3.80;;
21769;SDS011;11046;49.558;8.674;2022-09-03T08:45:19;4.93;;;3.90;;
21769;SDS011;11046;49.558;8.674;2022-09-03T08:48:20;4.38;;;3.70;;
21769;SDS011;11046;49.558;8.674;2022-09-03T08:51:22;5.32;;;4.30;;
21769;SDS011;11046;49.558;8.674;2022-09-03T08:54:28;6.10;;;3.97;;
21769;SDS011;11046;49.558;8.674;2022-09-03T08:57:31;5.57;;;3.90;;
21769;SDS011;11046;49.558;8.674;2022-09-03T09:07:36;5.88;;;3.78;;
21769;SDS011;11046;49.558;8.674;2022-09-03T09:10:55;5.03;;;4.28;;
21769;SDS011;11046;49.558;8.674;2022-09-03T09:14:03;5.55;;;4.25;;
21769;SDS011;11046;49.558;8.674;2022-09-03T09:23:47;5.10;;;3.63;;
21769;SDS011;11046;49.558;8.674;2022-09-03T09:26:56;5.13;;;4.15;;
21769;SDS011;11046;49.558;8.674;2022-09-03T09:30:07;7.13;;;4.00;;
21769;SDS011;11046;49.558;8.674;2022-09-03T09:33:14;5.07;;;4.35;;
21769;SDS011;11046;49.558;8.674;2022-09-03T09:36:25;10.88;;;4.45;;
21769;SDS011;11046;49.558;8.674;2022-09-03T09:39:58;5.05;;;4.40;;
21769;SDS011;11046;49.558;8.674;2022-09-03T09:43:21;4.38;;;3.90;;
21769;SDS011;11046;49.558;8.674;2022-09-03T09:46:33;6.10;;;4.35;;
21769;SDS011;11046;49.558;8.674;2022-09-03T09:49:58;5.25;;;3.97;;
21769;SDS011;11046;49.558;8.674;2022-09-03T09:53:31;4.55;;;4.13;;
21769;SDS011;11046;49.558;8.674;2022-09-03T09:57:00;9.10;;;4.70;;
21769;SDS011;11046;49.558;8.674;2022-09-03T10:00:39;6.40;;;4.32;;
21769;SDS011;11046;49.558;8.674;2022-09-03T10:03:52;5.05;;;4.30;;
21769;SDS011;11046;49.558;8.674;2022-09-03T10:07:52;5.68;;;4.72;;
21769;SDS011;11046;49.558;8.674;2022-09-03T10:11:07;5.65;;;5.00;;
21769;SDS011;11046;49.558;8.674;2022-09-03T10:14:26;5.60;;;5.00;;
21769;SDS011;11046;49.558;8.674;2022-09-03T10:27:40;4.13;;;3.50;;
21769;SDS011;11046;49.558;8.674;2022-09-03T10:30:50;5.57;;;3.80;;
21769;SDS011;11046;49.558;8.674;2022-09-03T10:34:17;6.68;;;3.30;;
21769;SDS011;11046;49.558;8.674;2022-09-03T10:40:41;3.40;;;3.03;;
21769;SDS011;11046;49.558;8.674;2022-09-03T10:47:15;4.05;;;2.47;;
21769;SDS011;11046;49.558;8.674;2022-09-03T10:57:11;2.90;;;2.70;;
21769;SDS011;11046;49.558;8.674;2022-09-03T11:00:14;3.00;;;2.70;;
21769;SDS011;11046;49.558;8.674;2022-09-03T11:06:54;3.47;;;2.53;;
21769;SDS011;11046;49.558;8.674;2022-09-03T11:10:21;3.25;;;2.35;;
21769;SDS011;11046;49.558;8.674;2022-09-03T11:13:33;5.70;;;2.15;;
21769;SDS011;11046;49.558;8.674;2022-09-03T11:16:47;2.60;;;2.15;;
21769;SDS011;11046;49.558;8.674;2022-09-03T11:23:17;2.50;;;2.28;;
21769;SDS011;11046;49.558;8.674;2022-09-03T11:26:19;3.40;;;2.15;;
21769;SDS011;11046;49.558;8.674;2022-09-03T11:29:33;1.55;;;1.45;;
21769;SDS011;11046;49.558;8.674;2022-09-03T11:32:57;3.42;;;2.30;;
21769;SDS011;11046;49.558;8.674;2022-09-03T11:35:59;2.38;;;1.90;;
21769;SDS011;11046;49.558;8.674;2022-09-03T11:39:11;2.25;;;1.85;;
21769;SDS011;11046;49.558;8.674;2022-09-03T11:42:27;2.45;;;1.80;;
21769;SDS011;11046;49.558;8.674;2022-09-03T11:48:36;2.13;;;1.67;;
21769;SDS011;11046;49.558;8.674;2022-09-03T11:51:37;1.60;;;1.42;;
21769;SDS011;11046;49.558;8.674;2022-09-03T11:54:44;1.63;;;1.52;;
21769;SDS011;11046;49.558;8.674;2022-09-03T11:57:46;2.83;;;1.80;;
21769;SDS011;11046;49.558;8.674;2022-09-03T12:00:50;2.80;;;1.50;;
21769;SDS011;11046;49.558;8.674;2022-09-03T12:03:58;1.20;;;1.10;;
21769;SDS011;11046;49.558;8.674;2022-09-03T12:07:09;2.35;;;1.00;;
21769;SDS011;11046;49.558;8.674;2022-09-03T12:10:38;1.35;;;1.25;;
21769;SDS011;11046;49.558;8.674;2022-09-03T12:17:03;1.40;;;1.30;;
21769;SDS011;11046;49.558;8.674;2022-09-03T12:20:16;1.60;;;1.40;;
21769;SDS011;11046;49.558;8.674;2022-09-03T12:26:43;1.23;;;1.10;;
21769;SDS011;11046;49.558;8.674;2022-09-03T12:29:51;1.17;;;1.08;;
21769;SDS011;11046;49.558;8.674;2022-09-03T12:33:05;1.30;;;1.20;;
21769;SDS011;11046;49.558;8.674;2022-09-03T12:36:07;1.20;;;1.13;;
21769;SDS011;11046;49.558;8.674;2022-09-03T12:39:09;0.85;;;0.85;;
21769;SDS011;11046;49.558;8.674;2022-09-03T12:42:11;2.05;;;0.82;;
21769;SDS011;11046;49.558;8.674;2022-09-03T12:45:19;1.35;;;1.00;;
21769;SDS011;11046;49.558;8.674;2022-09-03T12:48:22;1.75;;;0.80;;
21769;SDS011;11046;49.558;8.674;2022-09-03T12:51:23;0.80;;;0.80;;
21769;SDS011;11046;49.558;8.674;2022-09-03T12:54:23;1.73;;;1.00;;
21769;SDS011;11046;49.558;8.674;2022-09-03T12:57:30;1.20;;;1.10;;
21769;SDS011;11046;49.558;8.674;2022-09-03T13:04:29;1.52;;;1.05;;
21769;SDS011;11046;49.558;8.674;2022-09-03T13:07:57;1.52;;;1.23;;
21769;SDS011;11046;49.558;8.674;2022-09-03T13:11:10;1.17;;;1.05;;
21769;SDS011;11046;49.558;8.674;2022-09-03T13:14:28;1.20;;;1.10;;
21769;SDS011;11046;49.558;8.674;2022-09-03T13:21:10;2.92;;;1.17;;
21769;SDS011;11046;49.558;8.674;2022-09-03T13:24:27;1.40;;;1.20;;
21769;SDS011;11046;49.558;8.674;2022-09-03T13:31:35;1.48;;;1.38;;
21769;SDS011;11046;49.558;8.674;2022-09-03T13:34:59;1.75;;;1.65;;
21769;SDS011;11046;49.558;8.674;2022-09-03T13:38:20;2.58;;;2.00;;
21769;SDS011;11046;49.558;8.674;2022-09-03T13:48:16;2.08;;;1.80;;
21769;SDS011;11046;49.558;8.674;2022-09-03T13:51:59;1.92;;;1.70;;
21769;SDS011;11046;49.558;8.674;2022-09-03T13:55:07;1.60;;;1.50;;
21769;SDS011;11046;49.558;8.674;2022-09-03T13:58:26;1.50;;;1.40;;
21769;SDS011;11046;49.558;8.674;2022-09-03T14:11:39;4.32;;;1.70;;
21769;SDS011;11046;49.558;8.674;2022-09-03T14:15:14;1.80;;;1.70;;
21769;SDS011;11046;49.558;8.674;2022-09-03T14:18:34;1.70;;;1.60;;
21769;SDS011;11046;49.558;8.674;2022-09-03T14:21:46;2.60;;;2.05;;
21769;SDS011;11046;49.558;8.674;2022-09-03T14:25:01;2.40;;;2.20;;
21769;SDS011;11046;49.558;8.674;2022-09-03T14:28:12;2.28;;;2.08;;
21769;SDS011;11046;49.558;8.674;2022-09-03T14:34:59;2.83;;;2.30;;
21769;SDS011;11046;49.558;8.674;2022-09-03T14:38:14;4.60;;;2.38;;
21769;SDS011;11046;49.558;8.674;2022-09-03T14:41:37;3.00;;;2.70;;
21769;SDS011;11046;49.558;8.674;2022-09-03T14:55:24;4.68;;;3.28;;
21769;SDS011;11046;49.558;8.674;2022-09-03T15:15:45;4.90;;;4.18;;
21769;SDS011;11046;49.558;8.674;2022-09-03T15:22:24;6.28;;;5.68;;
21769;SDS011;11046;49.558;8.674;2022-09-03T15:35:58;4.97;;;4.30;;
21769;SDS011;11046;49.558;8.674;2022-09-03T15:39:12;5.93;;;4.70;;
21769;SDS011;11046;49.558;8.674;2022-09-03T15:42:21;5.50;;;4.65;;
21769;SDS011;11046;49.558;8.674;2022-09-03T15:45:31;5.95;;;4.90;;
21769;SDS011;11046;49.558;8.674;2022-09-03T15:49:02;6.70;;;5.65;;
21769;SDS011;11046;49.558;8.674;2022-09-03T15:58:49;5.32;;;4.53;;
21769;SDS011;11046;49.558;8.674;2022-09-03T16:02:04;5.38;;;4.72;;
21769;SDS011;11046;49.558;8.674;2022-09-03T16:09:01;5.18;;;4.40;;
21769;SDS011;11046;49.558;8.674;2022-09-03T16:15:39;5.57;;;4.70;;
21769;SDS011;11046;49.558;8.674;2022-09-03T16:18:51;5.05;;;4.53;;
21769;SDS011;11046;49.558;8.674;2022-09-03T16:22:06;5.53;;;4.72;;
21769;SDS011;11046;49.558;8.674;2022-09-03T16:25:22;5.95;;;4.95;;
21769;SDS011;11046;49.558;8.674;2022-09-03T16:28:42;7.03;;;5.00;;
21769;SDS011;11046;49.558;8.674;2022-09-03T16:35:34;4.60;;;3.47;;
21769;SDS011;11046;49.558;8.674;2022-09-03T16:42:17;3.70;;;3.05;;
21769;SDS011;11046;49.558;8.674;2022-09-03T16:45:34;3.40;;;3.10;;
21769;SDS011;11046;49.558;8.674;2022-09-03T17:01:54;3.40;;;2.85;;
21769;SDS011;11046;49.558;8.674;2022-09-03T17:05:02;5.60;;;3.10;;
21769;SDS011;11046;49.558;8.674;2022-09-03T17:18:08;5.45;;;2.90;;
21769;SDS011;11046;49.558;8.674;2022-09-03T17:24:38;2.90;;;2.70;;
21769;SDS011;11046;49.558;8.674;2022-09-03T17:41:39;2.70;;;2.30;;
21769;SDS011;11046;49.558;8.674;2022-09-03T17:45:30;3.75;;;2.95;;
21769;SDS011;11046;49.558;8.674;2022-09-03T17:52:11;3.75;;;2.42;;
21769;SDS011;11046;49.558;8.674;2022-09-03T17:55:12;3.20;;;2.70;;
21769;SDS011;11046;49.558;8.674;2022-09-03T17:58:37;3.53;;;2.92;;
21769;SDS011;11046;49.558;8.674;2022-09-03T18:01:50;4.15;;;3.10;;
21769;SDS011;11046;49.558;8.674;2022-09-03T18:08:32;2.70;;;2.40;;
21769;SDS011;11046;49.558;8.674;2022-09-03T18:14:50;3.25;;;2.70;;
21769;SDS011;11046;49.558;8.674;2022-09-03T18:18:04;2.72;;;2.50;;
21769;SDS011;11046;49.558;8.674;2022-09-03T18:21:11;4.25;;;3.20;;
21769;SDS011;11046;49.558;8.674;2022-09-03T18:24:53;2.83;;;2.63;;
21769;SDS011;11046;49.558;8.674;2022-09-03T18:28:16;3.22;;;2.85;;
21769;SDS011;11046;49.558;8.674;2022-09-03T18:31:40;3.35;;;3.03;;
21769;SDS011;11046;49.558;8.674;2022-09-03T18:35:00;3.53;;;2.65;;
21769;SDS011;11046;49.558;8.674;2022-09-03T18:38:26;4.55;;;2.95;;
21769;SDS011;11046;49.558;8.674;2022-09-03T18:42:26;4.32;;;3.38;;
21769;SDS011;11046;49.558;8.674;2022-09-03T18:45:52;4.35;;;3.13;;
21769;SDS011;11046;49.558;8.674;2022-09-03T18:49:32;4.40;;;3.60;;
21769;SDS011;11046;49.558;8.674;2022-09-03T18:53:01;3.63;;;3.08;;
21769;SDS011;11046;49.558;8.674;2022-09-03T18:56:34;5.35;;;3.33;;
21769;SDS011;11046;49.558;8.674;2022-09-03T19:00:11;4.97;;;3.15;;
21769;SDS011;11046;49.558;8.674;2022-09-03T19:03:38;6.15;;;3.75;;
21769;SDS011;11046;49.558;8.674;2022-09-03T19:07:14;4.45;;;3.60;;
21769;SDS011;11046;49.558;8.674;2022-09-03T19:22:05;6.55;;;3.50;;
21769;SDS011;11046;49.558;8.674;2022-09-03T19:25:27;5.82;;;3.88;;
21769;SDS011;11046;49.558;8.674;2022-09-03T19:28:47;5.07;;;4.15;;
21769;SDS011;11046;49.558;8.674;2022-09-03T19:32:18;7.13;;;4.13;;
21769;SDS011;11046;49.558;8.674;2022-09-03T19:47:01;5.03;;;4.13;;
21769;SDS011;11046;49.558;8.674;2022-09-03T19:50:23;6.05;;;4.07;;
21769;SDS011;11046;49.558;8.674;2022-09-03T19:53:47;4.22;;;3.80;;
21769;SDS011;11046;49.558;8.674;2022-09-03T19:57:07;5.72;;;3.90;;
21769;SDS011;11046;49.558;8.674;2022-09-03T20:00:30;6.70;;;4.70;;
21769;SDS011;11046;49.558;8.674;2022-09-03T20:03:50;4.30;;;3.90;;
21769;SDS011;11046;49.558;8.674;2022-09-03T20:07:09;6.80;;;4.00;;
21769;SDS011;11046;49.558;8.674;2022-09-03T20:10:29;8.93;;;3.85;;
21769;SDS011;11046;49.558;8.674;2022-09-03T20:13:31;4.50;;;3.80;;
21769;SDS011;11046;49.558;8.674;2022-09-03T20:17:14;4.90;;;4.38;;
21769;SDS011;11046;49.558;8.674;2022-09-03T20:20:46;7.85;;;4.68;;
21769;SDS011;11046;49.558;8.674;2022-09-03T20:43:49;5.53;;;3.70;;
21769;SDS011;11046;49.558;8.674;2022-09-03T20:51:03;5.78;;;3.80;;
21769;SDS011;11046;49.558;8.674;2022-09-03T21:00:49;7.03;;;4.13;;
21769;SDS011;11046;49.558;8.674;2022-09-03T21:04:12;4.80;;;3.95;;
21769;SDS011;11046;49.558;8.674;2022-09-03T21:11:06;5.95;;;4.28;;
21769;SDS011;11046;49.558;8.674;2022-09-03T21:21:01;5.13;;;4.32;;
21769;SDS011;11046;49.558;8.674;2022-09-03T21:24:11;6.28;;;5.22;;
21769;SDS011;11046;49.558;8.674;2022-09-03T21:27:22;8.50;;;5.70;;
21769;SDS011;11046;49.558;8.674;2022-09-03T21:30:25;7.60;;;6.13;;
21769;SDS011;11046;49.558;8.674;2022-09-03T21:33:30;8.55;;;5.95;;
21769;SDS011;11046;49.558;8.674;2022-09-03T21:36:35;7.45;;;5.75;;
21769;SDS011;11046;49.558;8.674;2022-09-03T21:42:43;9.27;;;5.55;;
21769;SDS011;11046;49.558;8.674;2022-09-03T21:46:23;7.05;;;5.30;;
21769;SDS011;11046;49.558;8.674;2022-09-03T21:49:37;6.78;;;5.05;;
21769;SDS011;11046;49.558;8.674;2022-09-03T21:53:02;7.15;;;5.30;;
21769;SDS011;11046;49.558;8.674;2022-09-03T22:02:42;6.20;;;4.68;;
21769;SDS011;11046;49.558;8.674;2022-09-03T22:05:49;9.60;;;4.60;;
21769;SDS011;11046;49.558;8.674;2022-09-03T22:09:30;5.63;;;5.00;;
21769;SDS011;11046;49.558;8.674;2022-09-03T22:15:37;7.07;;;5.53;;
21769;SDS011;11046;49.558;8.674;2022-09-03T22:18:38;6.82;;;5.60;;
21769;SDS011;11046;49.558;8.674;2022-09-03T22:25:00;6.63;;;4.82;;
21769;SDS011;11046;49.558;8.674;2022-09-03T22:28:12;6.47;;;5.60;;
21769;SDS011;11046;49.558;8.674;2022-09-03T22:51:21;5.60;;;4.75;;
21769;SDS011;11046;49.558;8.674;2022-09-03T22:57:39;5.50;;;4.60;;
21769;SDS011;11046;49.558;8.674;2022-09-03T23:01:35;6.00;;;4.80;;
21769;SDS011;11046;49.558;8.674;2022-09-03T23:08:08;6.85;;;4.97;;
21769;SDS011;11046;49.558;8.674;2022-09-03T23:14:42;9.52;;;6.80;;
21769;SDS011;11046;49.558;8.674;2022-09-03T23:17:53;6.88;;;5.55;;
21769;SDS011;11046;49.558;8.674;2022-09-03T23:24:26;6.20;;;5.05;;
21769;SDS011;11046;49.558;8.674;2022-09-03T23:27:38;6.45;;;5.55;;
21769;SDS011;11046;49.558;8.674;2022-09-03T23:30:45;7.95;;;5.10;;
21769;SDS011;11046;49.558;8.674;2022-09-03T23:33:46;6.53;;;5.15;;
21769;SDS011;11046;49.558;8.674;2022-09-03T23:40:19;6.53;;;4.65;;
21769;SDS011;11046;49.558;8.674;2022-09-03T23:46:34;6.38;;;4.97;;
21769;SDS011;11046;49.558;8.674;2022-09-03T23:49:57;7.00;;;4.85;;
21769;SDS011;11046;49.558;8.674;2022-09-03T23:56:25;5.63;;;4.90;;
